Time;durP1;ratioP1;P1;durP2;ratioP2;P2;SDS_P1;SDS_P2;PMS_P1;PMS_P2;Temp;Humidity;BMP_temperature;BMP_pressure;BME280_temperature;BME280_humidity;BME280_pressure;Samples;Min_cycle;Max_cycle;Signal;HPM_P1;HPM_P2
2021/12/14 00:01:38;;;;;;;17.70;7.32;;;11.70;99.90;;;;;;6335575;22;20056;-71
2021/12/14 00:04:31;;;;;;;20.88;7.47;;;11.60;99.90;;;;;;6308649;22;20064;-72
2021/12/14 00:07:02;;;;;;;20.42;7.20;;;11.60;99.90;;;;;;6333784;22;20003;-70
2021/12/14 00:09:35;;;;;;;23.42;7.38;;;11.50;99.90;;;;;;6309194;22;20007;-70
2021/12/14 00:12:40;;;;;;;28.30;7.80;;;11.50;99.90;;;;;;6308150;22;19995;-70
2021/12/14 00:15:13;;;;;;;22.23;7.28;;;11.40;99.90;;;;;;6308860;22;20006;-71
2021/12/14 00:17:50;;;;;;;25.77;7.38;;;11.50;99.90;;;;;;6308395;22;20007;-69
2021/12/14 00:20:28;;;;;;;22.23;7.80;;;11.50;99.90;;;;;;6335159;22;20081;-71
2021/12/14 00:25:28;;;;;;;18.92;7.82;;;11.50;99.90;;;;;;6335876;22;20003;-71
2021/12/14 00:27:56;;;;;;;23.42;8.25;;;11.50;99.90;;;;;;6335842;22;20007;-70
2021/12/14 00:30:22;;;;;;;20.48;7.38;;;11.50;99.90;;;;;;6336264;22;19999;-71
2021/12/14 00:32:48;;;;;;;;;;;11.60;99.90;;;;;;6335619;22;19996;-70
2021/12/14 00:35:14;;;;;;;21.77;7.72;;;11.60;99.90;;;;;;6335779;22;19909;-69
2021/12/14 00:37:45;;;;;;;22.77;8.05;;;11.60;99.90;;;;;;6334614;22;20002;-71
2021/12/14 00:40:19;;;;;;;19.17;7.57;;;11.70;99.90;;;;;;6334067;22;19999;-69
2021/12/14 00:42:45;;;;;;;25.27;8.10;;;11.70;99.90;;;;;;6335498;22;20009;-70
2021/12/14 00:45:12;;;;;;;25.63;7.53;;;11.70;99.90;;;;;;6306535;22;20446;-70
2021/12/14 00:47:38;;;;;;;22.10;7.68;;;11.70;99.90;;;;;;6335513;22;20002;-72
2021/12/14 00:50:05;;;;;;;27.05;8.52;;;11.60;99.90;;;;;;6334755;22;20411;-71
2021/12/14 00:52:31;;;;;;;21.98;8.02;;;11.60;99.90;;;;;;6306968;22;20007;-70
2021/12/14 00:54:57;;;;;;;20.65;8.30;;;11.70;99.90;;;;;;6336096;22;20003;-69
2021/12/14 00:57:23;;;;;;;27.42;8.70;;;11.70;99.90;;;;;;6335966;22;20003;-69
2021/12/14 00:59:52;;;;;;;27.25;8.65;;;11.70;99.90;;;;;;6336107;22;19999;-70
2021/12/14 01:02:21;;;;;;;22.35;8.07;;;11.80;99.90;;;;;;6307957;22;20064;-70
2021/12/14 01:04:58;;;;;;;29.48;8.70;;;11.80;99.90;;;;;;6334999;22;20053;-69
2021/12/14 01:07:28;;;;;;;24.35;7.82;;;11.90;99.90;;;;;;6335310;22;20005;-69
2021/12/14 01:09:57;;;;;;;22.55;7.43;;;11.90;99.90;;;;;;6335161;22;19999;-70
2021/12/14 01:12:37;;;;;;;24.23;8.32;;;11.90;99.90;;;;;;6334144;22;20087;-69
2021/12/14 01:15:28;;;;;;;28.65;8.45;;;11.80;99.90;;;;;;6335776;22;20030;-70
2021/12/14 01:20:52;;;;;;;24.23;8.27;;;11.80;99.90;;;;;;6336163;22;20025;-70
2021/12/14 01:23:29;;;;;;;24.65;8.38;;;11.90;99.90;;;;;;6335065;22;20073;-71
2021/12/14 01:26:03;;;;;;;20.67;7.60;;;11.80;99.90;;;;;;6333985;22;20340;-70
2021/12/14 01:28:30;;;;;;;26.95;7.82;;;11.70;99.90;;;;;;6307579;22;19998;-70
2021/12/14 01:31:16;;;;;;;23.98;8.13;;;11.70;99.90;;;;;;6308246;22;20003;-71
2021/12/14 01:33:47;;;;;;;26.67;8.05;;;11.70;99.90;;;;;;6334182;22;20009;-71
2021/12/14 01:36:38;;;;;;;22.88;8.35;;;11.60;99.90;;;;;;6334349;22;20423;-70
2021/12/14 01:39:45;;;;;;;27.77;8.93;;;11.60;99.90;;;;;;6333021;22;20019;-69
2021/12/14 01:42:14;;;;;;;21.83;8.70;;;11.60;99.90;;;;;;6335693;22;19999;-70
2021/12/14 01:44:46;;;;;;;24.58;9.02;;;11.70;99.90;;;;;;6334774;22;20018;-70
2021/12/14 01:47:49;;;;;;;24.02;8.68;;;11.60;99.90;;;;;;6335896;22;20013;-72
2021/12/14 01:50:26;;;;;;;28.55;8.38;;;11.60;99.90;;;;;;6320164;22;19999;-70
2021/12/14 01:52:52;;;;;;;31.15;9.23;;;11.70;99.90;;;;;;6305624;22;20264;-70
2021/12/14 01:55:26;;;;;;;24.42;8.18;;;11.90;99.90;;;;;;6335931;22;20093;-71
2021/12/14 01:57:55;;;;;;;26.83;8.07;;;11.90;99.90;;;;;;6334413;22;20002;-70
2021/12/14 02:00:27;;;;;;;24.73;8.40;;;11.80;99.90;;;;;;6333788;22;20423;-71
2021/12/14 02:02:53;;;;;;;27.77;8.50;;;11.70;99.90;;;;;;6335563;22;19999;-71
2021/12/14 02:05:29;;;;;;;24.67;8.25;;;11.70;99.90;;;;;;6334203;22;20055;-71
2021/12/14 02:07:57;;;;;;;31.63;9.18;;;11.60;99.90;;;;;;6334721;22;20025;-70
2021/12/14 02:10:36;;;;;;;32.20;8.73;;;11.60;99.90;;;;;;6334970;22;19998;-71
2021/12/14 02:13:05;;;;;;;27.40;8.73;;;11.70;99.90;;;;;;6337804;22;20415;-71
2021/12/14 02:15:38;;;;;;;29.45;8.48;;;11.70;99.90;;;;;;6341095;22;20006;-69
2021/12/14 02:18:11;;;;;;;27.23;9.05;;;11.70;99.90;;;;;;6339353;22;19999;-70
2021/12/14 02:20:38;;;;;;;31.15;8.38;;;11.70;99.90;;;;;;6336376;22;19995;-70
2021/12/14 02:23:06;;;;;;;30.45;9.02;;;11.70;99.90;;;;;;6306734;22;20092;-71
2021/12/14 02:25:32;;;;;;;28.05;9.18;;;11.70;99.90;;;;;;6335186;22;20003;-69
2021/12/14 02:28:03;;;;;;;26.25;8.23;;;11.70;99.90;;;;;;6334719;22;20339;-71
2021/12/14 02:30:32;;;;;;;28.05;9.00;;;11.80;99.90;;;;;;6334960;22;20002;-70
2021/12/14 02:33:08;;;;;;;25.10;8.32;;;11.80;99.90;;;;;;6334818;22;19995;-71
2021/12/14 02:35:35;;;;;;;30.75;8.40;;;11.90;99.90;;;;;;6336767;22;20025;-70
2021/12/14 02:38:05;;;;;;;25.95;8.13;;;12.00;99.90;;;;;;6336859;22;20002;-70
2021/12/14 02:40:55;;;;;;;26.13;8.05;;;12.10;99.90;;;;;;6338959;22;19999;-70
2021/12/14 02:43:38;;;;;;;25.98;7.95;;;12.10;99.90;;;;;;6317898;22;19999;-70
2021/12/14 02:46:15;;;;;;;23.45;7.38;;;12.20;99.90;;;;;;6336744;22;20013;-69
2021/12/14 02:48:43;;;;;;;37.30;8.27;;;12.10;99.90;;;;;;6336802;22;19999;-70
2021/12/14 02:51:17;;;;;;;23.17;8.35;;;12.10;99.90;;;;;;6336799;22;19994;-69
2021/12/14 02:53:45;;;;;;;27.65;8.07;;;12.10;99.90;;;;;;6334875;22;20368;-69
2021/12/14 02:56:26;;;;;;;24.98;7.32;;;12.00;99.90;;;;;;6336427;22;20377;-70
2021/12/14 02:58:58;;;;;;;25.70;7.60;;;12.10;99.90;;;;;;6335218;22;20030;-69
2021/12/14 03:01:24;;;;;;;20.15;7.15;;;12.10;99.90;;;;;;6335632;22;20335;-71
2021/12/14 03:03:49;;;;;;;21.15;6.80;;;12.00;99.90;;;;;;6335698;22;20418;-69
2021/12/14 03:06:21;;;;;;;25.02;7.35;;;12.10;99.90;;;;;;6334747;22;19998;-70
2021/12/14 03:08:57;;;;;;;26.90;7.30;;;12.00;99.90;;;;;;6336331;22;20049;-71
2021/12/14 03:11:24;;;;;;;21.77;7.60;;;12.00;99.90;;;;;;6335493;22;20083;-69
2021/12/14 03:13:52;;;;;;;28.42;7.13;;;12.10;99.90;;;;;;6334345;22;20003;-69
2021/12/14 03:16:25;;;;;;;20.50;6.90;;;12.00;99.90;;;;;;6307913;22;20074;-71
2021/12/14 03:18:52;;;;;;;26.00;7.65;;;12.10;99.90;;;;;;6334681;22;20059;-71
2021/12/14 03:21:25;;;;;;;24.27;7.00;;;12.00;99.90;;;;;;6308133;22;19995;-71
2021/12/14 03:23:57;;;;;;;24.15;6.68;;;12.10;99.90;;;;;;6336633;22;20093;-70
2021/12/14 03:26:27;;;;;;;21.20;6.57;;;12.10;99.90;;;;;;6333893;22;20494;-69
2021/12/14 03:28:55;;;;;;;30.40;7.22;;;12.00;99.90;;;;;;6335639;22;20003;-69
2021/12/14 03:31:36;;;;;;;25.38;6.55;;;12.00;99.90;;;;;;6335679;22;20026;-70
2021/12/14 03:34:25;;;;;;;23.83;6.30;;;12.00;99.90;;;;;;6335968;22;19999;-70
2021/12/14 03:36:55;;;;;;;25.13;6.97;;;11.90;99.90;;;;;;6307731;22;20139;-70
2021/12/14 03:39:31;;;;;;;25.27;6.97;;;11.90;99.90;;;;;;6334404;22;20002;-70
2021/12/14 03:42:07;;;;;;;28.57;7.63;;;11.90;99.90;;;;;;6335531;22;20049;-71
2021/12/14 03:44:40;;;;;;;22.52;7.35;;;11.90;99.90;;;;;;6334401;22;20003;-69
2021/12/14 03:47:08;;;;;;;23.58;7.60;;;11.80;99.90;;;;;;6333864;22;20423;-70
2021/12/14 03:49:59;;;;;;;23.35;7.35;;;11.80;99.90;;;;;;6335224;22;20078;-70
2021/12/14 03:52:34;;;;;;;24.73;7.70;;;11.80;99.90;;;;;;6307194;22;20006;-71
2021/12/14 03:55:06;;;;;;;27.50;8.00;;;11.90;99.90;;;;;;6335840;22;20011;-69
2021/12/14 03:57:32;;;;;;;28.98;8.38;;;11.90;99.90;;;;;;6335679;22;20010;-70
2021/12/14 03:59:58;;;;;;;24.58;7.88;;;11.90;99.90;;;;;;6306490;22;20140;-70
2021/12/14 04:02:24;;;;;;;30.48;8.25;;;11.90;99.90;;;;;;6335507;22;20422;-70
2021/12/14 04:05:01;;;;;;;26.83;7.82;;;11.90;99.90;;;;;;6335671;22;20009;-70
2021/12/14 04:07:27;;;;;;;;;;;12.00;99.90;;;;;;6337223;22;20026;-71
2021/12/14 04:09:54;;;;;;;21.42;7.75;;;11.90;99.90;;;;;;6336395;22;19899;-70
2021/12/14 04:12:23;;;;;;;23.45;8.32;;;11.80;99.90;;;;;;6335591;22;19990;-70
2021/12/14 04:14:55;;;;;;;27.83;7.60;;;11.70;99.90;;;;;;6334256;22;20023;-70
2021/12/14 04:17:24;;;;;;;26.17;7.25;;;11.70;99.90;;;;;;6337043;22;20027;-70
2021/12/14 04:19:50;;;;;;;31.92;8.10;;;11.70;99.90;;;;;;6333830;22;20413;-70
2021/12/14 04:22:29;;;;;;;23.00;7.55;;;11.80;99.90;;;;;;6335225;22;19995;-70
2021/12/14 04:24:59;;;;;;;24.15;7.00;;;11.80;99.90;;;;;;6334006;22;20006;-70
2021/12/14 04:27:27;;;;;;;23.00;6.38;;;11.90;99.90;;;;;;6335583;22;20013;-71
2021/12/14 04:29:54;;;;;;;25.88;6.88;;;12.00;99.90;;;;;;6334862;22;20395;-71
2021/12/14 04:32:20;;;;;;;24.45;6.97;;;12.10;99.90;;;;;;6333737;22;19999;-71
2021/12/14 04:34:48;;;;;;;19.50;6.38;;;12.20;99.90;;;;;;6334744;22;20005;-69
2021/12/14 04:37:16;;;;;;;18.90;6.03;;;12.20;99.90;;;;;;6306484;22;20007;-71
2021/12/14 04:39:47;;;;;;;22.77;6.57;;;12.20;99.90;;;;;;6333872;22;20423;-71
2021/12/14 04:53:33;;;;;;;31.13;6.20;;;12.10;99.90;;;;;;6333830;22;20010;-69
2021/12/14 04:55:59;;;;;;;24.35;6.40;;;12.20;99.90;;;;;;6334608;22;20014;-69
2021/12/14 04:58:30;;;;;;;25.15;6.68;;;12.20;99.90;;;;;;6333739;22;20402;-70
2021/12/14 05:00:57;;;;;;;23.45;6.63;;;12.30;99.90;;;;;;6333480;22;20147;-70
2021/12/14 05:03:26;;;;;;;23.20;6.20;;;12.30;99.90;;;;;;6333922;22;20005;-70
2021/12/14 05:06:08;;;;;;;24.70;6.10;;;12.30;99.90;;;;;;6332916;22;20493;-70
2021/12/14 05:11:20;;;;;;;24.27;5.75;;;12.20;99.90;;;;;;6335889;22;20006;-69
2021/12/14 05:13:58;;;;;;;21.15;5.30;;;12.20;99.90;;;;;;6332448;22;20083;-70
2021/12/14 05:16:27;;;;;;;23.48;6.03;;;12.20;99.90;;;;;;6333329;22;19995;-70
2021/12/14 05:18:57;;;;;;;23.80;5.20;;;12.20;99.90;;;;;;6333216;22;20018;-69
2021/12/14 05:21:29;;;;;;;21.85;5.63;;;12.30;99.90;;;;;;6334599;22;19995;-69
2021/12/14 05:23:56;;;;;;;24.38;5.70;;;12.20;99.90;;;;;;6333769;22;19998;-70
2021/12/14 05:26:23;;;;;;;17.75;5.43;;;12.30;99.90;;;;;;6332818;22;20002;-69
2021/12/14 05:28:49;;;;;;;23.77;5.57;;;12.30;99.90;;;;;;6334930;22;20064;-70
2021/12/14 05:31:16;;;;;;;20.90;5.78;;;12.30;99.90;;;;;;6334641;22;20300;-69
2021/12/14 05:33:42;;;;;;;25.60;6.03;;;12.30;99.90;;;;;;6333074;22;20006;-71
2021/12/14 05:36:12;;;;;;;;;;;12.40;99.90;;;;;;6334612;22;20073;-69
2021/12/14 05:38:54;;;;;;;21.23;5.68;;;12.40;99.90;;;;;;6333990;22;19926;-71
2021/12/14 05:44:23;;;;;;;20.65;5.80;;;12.20;99.90;;;;;;6334272;22;20464;-71
2021/12/14 05:46:52;;;;;;;25.13;5.73;;;12.30;99.90;;;;;;6333756;22;19999;-70
2021/12/14 05:49:24;;;;;;;20.15;5.75;;;12.30;99.90;;;;;;6335101;22;20325;-70
2021/12/14 05:51:52;;;;;;;20.17;4.97;;;12.30;99.90;;;;;;6335258;22;20003;-70
2021/12/14 05:54:21;;;;;;;23.17;5.45;;;12.20;99.90;;;;;;6335647;22;20007;-70
2021/12/14 05:56:49;;;;;;;20.15;4.75;;;12.30;99.90;;;;;;6335909;22;20018;-70
2021/12/14 05:59:25;;;;;;;24.23;5.15;;;12.30;99.90;;;;;;6333737;22;20445;-69
2021/12/14 06:01:51;;;;;;;20.92;5.28;;;12.30;99.90;;;;;;6334648;22;20053;-69
2021/12/14 06:04:17;;;;;;;22.48;5.22;;;12.30;99.90;;;;;;6334615;22;20003;-70
2021/12/14 06:06:51;;;;;;;18.90;5.07;;;12.20;99.90;;;;;;6333202;22;20486;-70
2021/12/14 06:09:24;;;;;;;18.42;5.45;;;12.20;99.90;;;;;;6335362;22;20064;-71
2021/12/14 06:11:56;;;;;;;26.08;5.50;;;12.10;99.90;;;;;;6333819;22;20349;-71
2021/12/14 06:14:26;;;;;;;19.92;5.22;;;12.10;99.90;;;;;;6335517;22;20003;-69
2021/12/14 06:17:05;;;;;;;19.17;4.72;;;12.10;99.90;;;;;;6334563;22;20003;-72
2021/12/14 06:19:36;;;;;;;22.48;5.28;;;12.10;99.90;;;;;;6334413;22;19999;-70
2021/12/14 06:22:14;;;;;;;22.38;5.25;;;12.00;99.90;;;;;;6306476;22;20003;-69
2021/12/14 06:24:46;;;;;;;17.02;5.38;;;12.00;99.90;;;;;;6333810;22;20485;-71
2021/12/14 06:27:15;;;;;;;22.38;5.63;;;11.90;99.90;;;;;;6307162;22;20105;-70
2021/12/14 06:29:50;;;;;;;22.27;5.75;;;11.80;99.90;;;;;;6334435;22;19995;-70
2021/12/14 06:32:31;;;;;;;24.55;5.38;;;11.80;99.90;;;;;;6305320;22;19999;-69
2021/12/14 06:35:03;;;;;;;22.73;5.75;;;11.90;99.90;;;;;;6332900;22;20025;-70
2021/12/14 06:38:11;;;;;;;23.77;6.05;;;11.80;99.90;;;;;;6334318;22;20079;-70
2021/12/14 06:40:48;;;;;;;22.88;6.00;;;11.80;99.90;;;;;;6305558;22;20330;-70
2021/12/14 06:43:21;;;;;;;21.63;6.10;;;11.70;99.90;;;;;;6333761;22;20517;-69
2021/12/14 06:46:00;;;;;;;22.27;6.57;;;11.70;99.90;;;;;;6332997;22;20013;-70
2021/12/14 06:48:48;;;;;;;18.48;5.93;;;11.60;99.90;;;;;;6334742;22;19999;-70
2021/12/14 06:51:16;;;;;;;24.83;6.20;;;11.70;99.90;;;;;;6334368;22;20029;-70
2021/12/14 06:53:45;;;;;;;26.63;6.10;;;11.80;99.90;;;;;;6334032;22;20049;-70
2021/12/14 06:56:13;;;;;;;16.00;5.97;;;11.70;99.90;;;;;;6334663;22;20022;-70
2021/12/14 06:58:54;;;;;;;22.52;6.20;;;11.80;99.90;;;;;;6332849;22;20002;-70
2021/12/14 07:01:24;;;;;;;19.80;6.30;;;11.80;99.90;;;;;;6334322;22;19999;-69
2021/12/14 07:03:57;;;;;;;26.27;6.57;;;11.80;99.90;;;;;;6333928;22;20303;-70
2021/12/14 07:06:26;;;;;;;23.45;6.20;;;11.90;99.90;;;;;;6333649;22;20085;-69
2021/12/14 07:08:55;;;;;;;18.15;5.72;;;12.00;99.90;;;;;;6334383;22;20410;-71
2021/12/14 07:11:23;;;;;;;21.10;5.13;;;12.00;99.90;;;;;;6333709;22;20521;-69
2021/12/14 07:13:51;;;;;;;25.20;5.85;;;11.90;99.90;;;;;;6330755;22;20003;-69
2021/12/14 07:16:27;;;;;;;20.20;5.05;;;11.90;99.90;;;;;;6333249;22;19991;-71
2021/12/14 07:18:56;;;;;;;21.40;5.05;;;11.90;99.90;;;;;;6333352;22;20030;-71
2021/12/14 07:21:46;;;;;;;16.67;4.95;;;11.90;99.90;;;;;;6334482;22;19998;-70
2021/12/14 07:24:21;;;;;;;21.40;5.07;;;11.90;99.90;;;;;;6335379;22;20037;-69
2021/12/14 07:27:12;;;;;;;18.55;5.00;;;12.00;99.90;;;;;;6335872;22;20013;-70
2021/12/14 07:29:38;;;;;;;17.52;5.18;;;12.00;99.90;;;;;;6309505;22;20007;-69
2021/12/14 07:32:04;;;;;;;23.27;5.40;;;12.00;99.90;;;;;;6336349;22;20019;-70
2021/12/14 07:34:30;;;;;;;22.42;5.68;;;12.00;99.90;;;;;;6337187;22;19994;-71
2021/12/14 07:36:57;;;;;;;18.65;5.72;;;12.00;99.90;;;;;;6312815;22;20003;-71
2021/12/14 07:39:22;;;;;;;20.30;5.72;;;12.00;99.90;;;;;;6308604;22;20075;-69
2021/12/14 07:41:53;;;;;;;20.13;6.30;;;11.90;99.90;;;;;;6335013;22;20362;-70
2021/12/14 07:44:32;;;;;;;27.08;6.88;;;11.90;99.90;;;;;;6306697;22;20041;-71
2021/12/14 07:47:14;;;;;;;19.92;6.32;;;11.80;99.90;;;;;;6306440;22;20045;-71
2021/12/14 07:49:55;;;;;;;20.05;5.95;;;11.90;99.90;;;;;;6336003;22;20401;-71
2021/12/14 07:52:41;;;;;;;22.45;6.55;;;11.90;99.90;;;;;;6305615;22;20405;-71
2021/12/14 07:55:37;;;;;;;27.05;6.43;;;11.90;99.90;;;;;;6332125;22;20042;-70
2021/12/14 07:58:05;;;;;;;25.88;6.50;;;12.00;99.90;;;;;;6332469;22;20003;-70
2021/12/14 08:00:35;;;;;;;25.63;7.40;;;12.00;99.90;;;;;;6306220;22;20028;-71
2021/12/14 08:03:03;;;;;;;21.10;8.43;;;12.00;99.90;;;;;;6334492;22;20451;-70
2021/12/14 08:05:58;;;;;;;22.65;7.40;;;11.90;99.90;;;;;;6333207;22;20476;-71
2021/12/14 08:08:33;;;;;;;25.77;7.65;;;12.00;99.90;;;;;;6332741;22;20012;-72
2021/12/14 08:13:50;;;;;;;24.60;7.60;;;11.90;99.90;;;;;;6335037;22;20441;-71
2021/12/14 08:16:16;;;;;;;19.05;7.15;;;11.90;99.90;;;;;;6334271;22;19999;-71
2021/12/14 08:18:44;;;;;;;25.48;8.13;;;11.90;99.90;;;;;;6307041;22;20009;-70
2021/12/14 08:21:17;;;;;;;23.70;8.18;;;12.00;99.90;;;;;;6334060;22;20280;-71
2021/12/14 08:24:08;;;;;;;25.17;8.57;;;11.90;99.90;;;;;;6334238;22;20062;-70
2021/12/14 08:26:44;;;;;;;27.02;9.32;;;12.00;99.90;;;;;;6324886;22;20082;-70
2021/12/14 08:29:16;;;;;;;25.73;7.88;;;11.90;99.90;;;;;;6331239;22;20283;-71
2021/12/14 08:31:46;;;;;;;24.67;9.13;;;11.80;99.90;;;;;;6331492;22;19999;-70
2021/12/14 08:34:19;;;;;;;24.52;9.13;;;11.80;99.90;;;;;;6333187;22;20437;-70
2021/12/14 08:36:55;;;;;;;26.80;8.63;;;11.80;99.90;;;;;;6305123;22;20012;-69
2021/12/14 08:39:28;;;;;;;28.02;8.02;;;11.80;99.90;;;;;;6329630;22;19995;-70
2021/12/14 08:42:11;;;;;;;31.90;8.80;;;12.00;99.90;;;;;;6333740;22;20037;-71
2021/12/14 08:44:50;;;;;;;17.08;7.05;;;12.00;99.90;;;;;;6334729;22;20052;-71
2021/12/14 08:47:26;;;;;;;24.17;7.57;;;12.00;99.90;;;;;;6334991;22;19995;-71
2021/12/14 08:49:54;;;;;;;31.10;7.90;;;12.00;99.90;;;;;;6334820;22;20006;-71
2021/12/14 08:52:21;;;;;;;31.08;7.07;;;12.10;99.90;;;;;;6332929;22;20007;-71
2021/12/14 08:54:47;;;;;;;20.55;6.55;;;12.10;99.90;;;;;;6333613;22;20105;-72
2021/12/14 08:57:19;;;;;;;23.48;6.32;;;12.00;99.90;;;;;;6334305;22;20368;-69
2021/12/14 08:59:51;;;;;;;24.40;6.40;;;12.10;99.90;;;;;;6304245;22;20085;-70
2021/12/14 09:02:17;;;;;;;25.92;7.05;;;12.10;99.90;;;;;;6333047;22;19994;-69
2021/12/14 09:04:50;;;;;;;22.08;6.20;;;12.20;99.90;;;;;;6305271;22;20027;-70
2021/12/14 09:07:23;;;;;;;23.17;6.47;;;12.30;99.90;;;;;;6332635;22;20010;-70
2021/12/14 09:09:49;;;;;;;17.92;6.50;;;12.40;99.90;;;;;;6333060;22;20002;-71
2021/12/14 09:12:24;;;;;;;21.88;6.38;;;12.40;99.90;;;;;;6332709;22;20048;-70
2021/12/14 09:14:53;;;;;;;20.83;5.65;;;12.50;99.90;;;;;;6331313;22;20104;-70
2021/12/14 09:17:22;;;;;;;24.48;5.47;;;12.60;99.90;;;;;;6335247;22;20074;-70
2021/12/14 09:19:56;;;;;;;18.95;5.60;;;12.80;99.90;;;;;;6335907;22;19994;-71
2021/12/14 09:22:41;;;;;;;18.00;5.72;;;12.80;99.90;;;;;;6306724;22;20009;-72
2021/12/14 09:25:11;;;;;;;19.27;5.63;;;12.80;99.90;;;;;;6331434;22;20150;-70
2021/12/14 09:27:37;;;;;;;16.02;5.30;;;12.80;99.90;;;;;;6332539;22;20011;-70
2021/12/14 09:30:06;;;;;;;17.60;5.75;;;12.80;99.90;;;;;;6334696;22;20013;-71
2021/12/14 09:32:34;;;;;;;18.60;5.40;;;12.90;99.90;;;;;;6333011;22;19999;-71
2021/12/14 09:35:02;;;;;;;19.10;6.30;;;12.90;99.90;;;;;;6334327;22;20038;-72
2021/12/14 09:37:31;;;;;;;18.70;5.88;;;12.90;99.90;;;;;;6333529;22;19999;-71
2021/12/14 09:40:00;;;;;;;24.83;5.93;;;12.80;99.90;;;;;;6333105;22;19999;-70
2021/12/14 09:42:30;;;;;;;20.42;5.63;;;12.70;99.90;;;;;;6332314;22;20081;-71
2021/12/14 09:45:00;;;;;;;23.88;6.30;;;12.80;99.90;;;;;;6332126;22;20011;-70
2021/12/14 09:47:31;;;;;;;15.15;5.20;;;12.80;99.90;;;;;;6330914;22;20419;-70
2021/12/14 09:50:00;;;;;;;21.27;5.82;;;12.80;99.90;;;;;;6334273;22;20082;-69
2021/12/14 09:52:31;;;;;;;18.70;5.78;;;12.80;99.90;;;;;;6304770;22;20010;-70
2021/12/14 09:55:00;;;;;;;18.55;5.20;;;12.90;99.90;;;;;;6307080;22;20106;-70
2021/12/14 09:57:32;;;;;;;14.27;4.80;;;12.80;99.90;;;;;;6335025;22;20003;-69
2021/12/14 10:00:01;;;;;;;15.73;5.00;;;12.90;99.90;;;;;;6305650;22;19998;-69
2021/12/14 10:02:32;;;;;;;10.60;4.32;;;12.90;99.90;;;;;;6334634;22;20439;-70
2021/12/14 10:05:05;;;;;;;18.45;5.10;;;12.90;99.90;;;;;;6333645;22;20347;-71
2021/12/14 10:07:31;;;;;;;16.02;5.50;;;12.90;99.90;;;;;;6333567;22;20007;-71
2021/12/14 10:09:59;;;;;;;16.85;4.90;;;12.90;99.90;;;;;;6333426;22;20025;-71
2021/12/14 10:15:06;;;;;;;14.05;4.65;;;12.90;99.90;;;;;;6337341;22;20449;-70
2021/12/14 10:17:32;;;;;;;10.43;3.95;;;12.90;99.90;;;;;;6305232;22;20003;-70
2021/12/14 10:19:58;;;;;;;14.73;3.97;;;12.90;99.90;;;;;;6332245;22;19994;-71
2021/12/14 10:22:28;;;;;;;10.90;3.90;;;13.10;99.90;;;;;;6333939;22;20018;-71
2021/12/14 10:24:57;;;;;;;10.23;3.63;;;13.10;99.90;;;;;;6332511;22;20484;-70
2021/12/14 10:27:25;;;;;;;13.57;4.00;;;13.10;99.90;;;;;;6333760;22;20003;-70
2021/12/14 10:29:54;;;;;;;10.35;3.85;;;13.10;99.90;;;;;;6334528;22;20002;-71
2021/12/14 10:32:24;;;;;;;11.40;3.35;;;13.10;99.90;;;;;;6307090;22;20010;-70
2021/12/14 10:34:58;;;;;;;10.60;4.43;;;13.10;99.90;;;;;;6334092;22;20072;-71
2021/12/14 10:37:40;;;;;;;10.27;3.97;;;13.10;99.90;;;;;;6334475;22;20436;-70
2021/12/14 10:43:06;;;;;;;9.68;3.67;;;13.00;99.90;;;;;;6337352;22;20464;-70
2021/12/14 10:45:33;;;;;;;13.50;3.50;;;13.00;99.90;;;;;;6312417;22;20003;-70
2021/12/14 10:48:00;;;;;;;12.40;3.70;;;13.00;99.90;;;;;;6336615;22;20007;-70
2021/12/14 10:50:31;;;;;;;16.65;3.78;;;13.10;99.90;;;;;;6333882;22;20002;-70
2021/12/14 10:52:59;;;;;;;11.27;3.80;;;13.20;99.90;;;;;;6334346;22;20007;-70
2021/12/14 10:55:33;;;;;;;13.15;3.63;;;13.10;99.90;;;;;;6337019;22;20061;-69
2021/12/14 10:57:59;;;;;;;11.25;3.83;;;13.20;99.90;;;;;;6336223;22;20022;-70
2021/12/14 11:00:37;;;;;;;13.00;3.80;;;13.20;99.90;;;;;;6334885;22;20399;-70
2021/12/14 11:03:10;;;;;;;25.70;4.05;;;13.20;99.90;;;;;;6336062;22;20081;-71
2021/12/14 11:05:38;;;;;;;16.48;3.83;;;13.30;99.90;;;;;;6337067;22;20003;-69
2021/12/14 11:08:19;;;;;;;12.82;3.47;;;13.30;99.90;;;;;;6336977;22;20101;-70
2021/12/14 11:10:45;;;;;;;10.57;3.85;;;13.30;99.90;;;;;;6334899;22;19999;-69
2021/12/14 11:13:12;;;;;;;13.57;4.28;;;13.20;99.90;;;;;;6333777;22;20005;-70
2021/12/14 11:15:48;;;;;;;21.05;6.97;;;13.30;99.90;;;;;;6334691;22;20334;-71
2021/12/14 11:18:18;;;;;;;28.35;5.35;;;13.30;99.90;;;;;;6305268;22;20093;-71
2021/12/14 11:20:50;;;;;;;19.90;4.28;;;13.20;99.90;;;;;;6307222;22;19999;-71
2021/12/14 11:23:29;;;;;;;17.02;4.50;;;13.30;99.90;;;;;;6336458;22;20448;-71
2021/12/14 11:26:07;;;;;;;13.57;4.03;;;13.30;99.90;;;;;;6335141;22;20018;-70
2021/12/14 11:28:39;;;;;;;20.48;4.25;;;13.30;99.90;;;;;;6335725;22;20107;-70
2021/12/14 11:31:29;;;;;;;10.57;3.80;;;13.40;99.90;;;;;;6333683;22;20009;-72
2021/12/14 11:33:57;;;;;;;16.40;3.63;;;13.40;99.90;;;;;;6333832;22;20431;-72
2021/12/14 11:36:25;;;;;;;20.17;4.07;;;13.40;99.90;;;;;;6336868;22;20356;-69
2021/12/14 11:39:10;;;;;;;10.38;3.72;;;13.30;99.90;;;;;;6336155;22;20003;-70
2021/12/14 11:41:39;;;;;;;13.95;4.15;;;13.40;99.90;;;;;;6335193;22;20011;-71
2021/12/14 11:44:13;;;;;;;11.73;3.83;;;13.40;99.90;;;;;;6335165;22;20318;-72
2021/12/14 11:46:58;;;;;;;13.02;4.03;;;13.60;99.90;;;;;;6335041;22;20026;-68
2021/12/14 11:49:38;;;;;;;13.88;4.20;;;13.50;99.90;;;;;;6335853;22;20438;-71
2021/12/14 11:52:05;;;;;;;9.77;4.07;;;13.70;99.90;;;;;;6336007;22;20056;-70
2021/12/14 11:54:42;;;;;;;12.63;3.95;;;13.60;99.90;;;;;;6336156;22;19998;-70
2021/12/14 11:57:08;;;;;;;37.13;5.35;;;13.60;99.90;;;;;;6336209;22;20447;-70
2021/12/14 11:59:34;;;;;;;15.65;3.53;;;13.60;99.90;;;;;;6335004;22;20192;-70
2021/12/14 12:02:01;;;;;;;11.50;3.63;;;13.60;99.90;;;;;;6333719;22;20020;-70
2021/12/14 12:04:43;;;;;;;14.43;3.95;;;13.60;99.90;;;;;;6336176;22;20070;-71
2021/12/14 12:09:41;;;;;;;13.10;2.92;;;13.60;99.90;;;;;;6337772;22;20003;-70
2021/12/14 12:12:15;;;;;;;16.15;3.13;;;13.70;99.90;;;;;;6330988;22;20082;-69
2021/12/14 12:15:11;;;;;;;11.80;3.25;;;13.60;99.90;;;;;;6336621;22;19995;-69
2021/12/14 12:17:48;;;;;;;11.10;3.33;;;13.70;99.90;;;;;;6335607;22;19998;-71
2021/12/14 12:20:35;;;;;;;9.07;3.03;;;13.70;99.90;;;;;;6306968;22;20040;-72
2021/12/14 12:23:13;;;;;;;9.65;3.60;;;13.60;99.90;;;;;;6308212;22;20030;-71
2021/12/14 12:25:41;;;;;;;11.63;3.22;;;13.60;99.90;;;;;;6333769;22;20406;-71
2021/12/14 12:28:16;;;;;;;9.70;3.70;;;13.60;99.90;;;;;;6334080;22;20034;-69
2021/12/14 12:31:06;;;;;;;15.20;4.13;;;13.60;99.90;;;;;;6335276;22;20014;-71
2021/12/14 12:33:42;;;;;;;15.13;4.03;;;13.70;99.90;;;;;;6334152;22;19999;-71
2021/12/14 12:36:17;;;;;;;16.50;3.75;;;13.70;99.90;;;;;;6333627;22;20003;-71
2021/12/14 12:39:03;;;;;;;18.05;3.92;;;13.80;99.90;;;;;;6333160;22;20001;-71
2021/12/14 12:41:38;;;;;;;11.60;3.55;;;13.80;99.90;;;;;;6334038;22;20033;-70
2021/12/14 12:44:12;;;;;;;15.93;3.85;;;13.80;99.90;;;;;;6333993;22;20007;-70
2021/12/14 12:46:54;;;;;;;12.07;3.53;;;13.80;99.90;;;;;;6333921;22;19999;-71
2021/12/14 12:49:24;;;;;;;14.75;3.58;;;13.90;99.90;;;;;;6306850;22;20009;-71
2021/12/14 12:52:13;;;;;;;11.55;3.20;;;14.00;99.90;;;;;;6334912;22;20322;-70
2021/12/14 12:54:41;;;;;;;11.55;3.03;;;14.00;99.90;;;;;;6335194;22;20085;-70
2021/12/14 12:57:28;;;;;;;12.20;2.65;;;13.90;99.90;;;;;;6335241;22;19998;-72
2021/12/14 13:00:12;;;;;;;11.52;3.13;;;13.90;99.90;;;;;;6333578;22;20009;-72
2021/12/14 13:02:37;;;;;;;7.80;2.65;;;13.80;99.90;;;;;;6306329;22;20504;-70
2021/12/14 13:05:15;;;;;;;12.25;3.25;;;13.80;99.90;;;;;;6333987;22;20090;-71
2021/12/14 13:07:49;;;;;;;10.88;2.78;;;13.80;99.90;;;;;;6334361;22;20021;-71
2021/12/14 13:10:27;;;;;;;7.65;3.40;;;13.90;99.90;;;;;;6335068;22;20071;-71
2021/12/14 13:13:05;;;;;;;11.50;3.08;;;14.00;99.90;;;;;;6330476;22;20246;-70
2021/12/14 13:15:48;;;;;;;10.77;3.35;;;13.90;99.90;;;;;;6333574;22;19999;-69
2021/12/14 13:18:34;;;;;;;27.17;4.07;;;13.90;99.90;;;;;;6332908;22;20067;-70
2021/12/14 13:21:31;;;;;;;23.38;4.10;;;13.90;99.90;;;;;;6334553;22;20430;-70
2021/12/14 13:24:03;;;;;;;8.70;2.90;;;13.90;99.90;;;;;;6271193;22;20025;-69
2021/12/14 13:26:43;;;;;;;11.13;3.30;;;13.90;99.90;;;;;;6332633;22;19999;-69
2021/12/14 13:29:11;;;;;;;15.20;2.90;;;13.90;99.90;;;;;;6333882;22;20009;-70
2021/12/14 13:31:57;;;;;;;12.43;2.90;;;13.80;99.90;;;;;;6333530;22;20326;-71
2021/12/14 13:34:30;;;;;;;5.95;2.95;;;13.80;99.90;;;;;;6306512;22;20501;-71
2021/12/14 13:36:57;;;;;;;11.88;3.20;;;13.80;99.90;;;;;;6333635;22;20351;-71
2021/12/14 13:39:24;;;;;;;9.65;3.00;;;13.80;99.90;;;;;;6331260;22;20002;-71
2021/12/14 13:42:11;;;;;;;15.20;3.45;;;13.80;99.90;;;;;;6331622;22;20299;-70